Time;durP1;ratioP1;P1;durP2;ratioP2;P2;SDS_P1;SDS_P2;PMS_P1;PMS_P2;Temp;Humidity;BMP_temperature;BMP_pressure;BME280_temperature;BME280_humidity;BME280_pressure;Samples;Min_cycle;Max_cycle;Signal;HPM_P1;HPM_P2
2021/09/02 00:01:19;;;;;;;16.33;6.83;;;19.90;95.50;;;;;;4918147;29;20266;-83
2021/09/02 00:03:44;;;;;;;9.27;6.07;;;19.80;95.60;;;;;;4902578;29;20199;-84
2021/09/02 00:06:10;;;;;;;9.47;5.90;;;19.90;95.40;;;;;;4918067;29;20198;-84
2021/09/02 00:08:36;;;;;;;11.50;6.20;;;19.90;95.40;;;;;;4902342;29;20224;-84
2021/09/02 00:11:01;;;;;;;14.30;6.30;;;19.80;95.60;;;;;;4901363;29;20224;-84
2021/09/02 00:13:27;;;;;;;14.27;6.87;;;19.70;95.60;;;;;;4902724;29;20284;-84
2021/09/02 00:15:53;;;;;;;11.83;5.90;;;19.70;95.80;;;;;;4902160;29;20198;-87
2021/09/02 00:18:21;;;;;;;11.97;5.80;;;19.60;95.70;;;;;;4917634;29;20195;-86
2021/09/02 00:20:46;;;;;;;10.20;5.73;;;19.50;95.70;;;;;;4917271;29;20188;-90
2021/09/02 00:23:12;;;;;;;12.50;6.17;;;19.60;95.80;;;;;;4902276;29;20753;-84
2021/09/02 00:25:38;;;;;;;13.47;6.03;;;19.60;95.50;;;;;;4901610;29;20196;-85
2021/09/02 00:28:04;;;;;;;8.40;5.30;;;19.70;95.30;;;;;;4918496;29;20196;-83
2021/09/02 00:30:29;;;;;;;12.07;5.87;;;19.70;95.50;;;;;;4917072;29;20211;-84
2021/09/02 00:32:55;;;;;;;10.77;5.53;;;19.70;95.30;;;;;;4918831;29;20262;-84
2021/09/02 00:35:21;;;;;;;11.30;5.43;;;19.70;95.50;;;;;;4918894;29;20226;-83
2021/09/02 00:37:46;;;;;;;13.40;5.93;;;19.60;95.50;;;;;;4911363;29;20587;-83
2021/09/02 00:40:12;;;;;;;9.90;5.47;;;19.70;95.70;;;;;;4906238;29;20223;-84
2021/09/02 00:42:38;;;;;;;12.33;5.50;;;19.50;95.90;;;;;;4902896;29;20198;-84
2021/09/02 00:45:04;;;;;;;14.37;6.30;;;19.50;95.80;;;;;;4918360;29;20183;-84
2021/09/02 00:47:30;;;;;;;10.67;5.90;;;19.50;95.70;;;;;;4900890;29;20258;-83
2021/09/02 00:49:55;;;;;;;12.13;5.80;;;19.50;95.60;;;;;;4920287;29;20215;-84
2021/09/02 00:52:30;;;;;;;16.80;5.60;;;19.50;95.80;;;;;;4907681;29;20187;-83
2021/09/02 00:54:59;;;;;;;10.47;5.73;;;19.50;95.70;;;;;;4918207;29;20195;-85
2021/09/02 00:57:27;;;;;;;9.17;5.33;;;19.50;95.80;;;;;;4916359;29;20215;-83
2021/09/02 01:00:00;;;;;;;13.47;5.70;;;19.60;95.50;;;;;;4916404;29;20189;-84
2021/09/02 01:02:27;;;;;;;14.03;5.47;;;19.60;95.60;;;;;;4900607;29;20184;-84
2021/09/02 01:04:54;;;;;;;11.13;5.63;;;19.50;96.00;;;;;;4901189;29;20606;-83
2021/09/02 01:07:22;;;;;;;11.50;5.33;;;19.40;96.40;;;;;;4916781;29;20652;-84
2021/09/02 01:09:48;;;;;;;13.97;5.37;;;19.50;96.30;;;;;;4900631;29;20199;-84
2021/09/02 01:12:25;;;;;;;9.17;5.17;;;19.60;96.30;;;;;;4917907;29;20206;-85
2021/09/02 01:14:51;;;;;;;14.20;5.60;;;19.30;96.70;;;;;;4900557;29;20682;-84
2021/09/02 01:17:17;;;;;;;13.30;5.23;;;19.30;96.90;;;;;;4916255;29;20231;-84
2021/09/02 01:19:44;;;;;;;10.97;5.20;;;19.20;97.20;;;;;;4900974;29;20250;-84
2021/09/02 01:22:10;;;;;;;12.47;5.30;;;19.10;97.40;;;;;;4901264;29;20294;-84
2021/09/02 01:24:36;;;;;;;14.83;6.10;;;19.20;97.10;;;;;;4916004;29;20806;-85
2021/09/02 01:27:01;;;;;;;10.73;5.67;;;19.20;97.10;;;;;;4917466;29;20273;-83
2021/09/02 01:29:27;;;;;;;13.80;5.50;;;19.20;97.00;;;;;;4915858;29;20198;-84
2021/09/02 01:31:54;;;;;;;11.17;6.03;;;19.20;97.10;;;;;;4900337;29;20202;-84
2021/09/02 01:34:20;;;;;;;11.23;6.07;;;19.30;96.80;;;;;;4900325;29;20190;-84
2021/09/02 01:36:46;;;;;;;8.87;4.97;;;19.40;96.90;;;;;;4917397;29;20216;-84
2021/09/02 01:39:21;;;;;;;11.83;5.83;;;19.40;96.90;;;;;;4915646;29;20191;-84
2021/09/02 01:41:47;;;;;;;10.27;5.67;;;19.20;97.30;;;;;;4899506;29;20186;-84
2021/09/02 01:44:13;;;;;;;12.00;5.50;;;19.10;97.00;;;;;;4900313;29;20202;-84
2021/09/02 01:46:39;;;;;;;10.33;5.43;;;19.10;96.80;;;;;;4900130;29;20187;-84
2021/09/02 01:49:04;;;;;;;13.67;6.40;;;19.10;96.40;;;;;;4900411;29;20187;-84
2021/09/02 01:51:30;;;;;;;11.67;5.27;;;19.20;96.20;;;;;;4900037;29;20230;-84
2021/09/02 01:53:56;;;;;;;13.90;5.53;;;19.30;96.60;;;;;;4899009;29;20196;-84
2021/09/02 01:56:22;;;;;;;10.57;6.23;;;19.40;96.00;;;;;;4900982;29;20665;-84
2021/09/02 01:58:47;;;;;;;9.30;4.93;;;19.40;96.20;;;;;;4897347;29;20195;-84
2021/09/02 02:01:13;;;;;;;10.00;5.13;;;19.40;96.20;;;;;;4898503;29;20194;-84
2021/09/02 02:03:39;;;;;;;13.03;4.93;;;19.20;96.70;;;;;;4921746;29;20189;-84
2021/09/02 02:06:06;;;;;;;9.90;5.37;;;19.00;96.70;;;;;;4905500;29;20654;-84
2021/09/02 02:08:32;;;;;;;10.80;5.10;;;19.00;96.60;;;;;;4899933;29;20187;-85
2021/09/02 02:10:58;;;;;;;10.53;5.47;;;19.10;96.70;;;;;;4899910;29;20227;-85
2021/09/02 02:13:24;;;;;;;9.77;5.67;;;19.00;96.80;;;;;;4898785;29;20197;-84
2021/09/02 02:15:49;;;;;;;10.07;5.77;;;19.10;96.70;;;;;;4910757;29;20205;-84
2021/09/02 02:18:15;;;;;;;11.30;5.53;;;19.00;96.60;;;;;;4916577;29;20202;-84
2021/09/02 02:20:40;;;;;;;12.00;5.30;;;19.10;96.70;;;;;;4899739;29;20632;-84
2021/09/02 02:23:06;;;;;;;10.50;4.90;;;19.00;96.80;;;;;;4896806;29;20213;-85
2021/09/02 02:25:32;;;;;;;12.40;5.87;;;19.00;97.00;;;;;;4924756;29;20196;-84
2021/09/02 02:27:58;;;;;;;11.97;5.47;;;19.00;97.00;;;;;;4897870;29;20196;-84
2021/09/02 02:30:24;;;;;;;11.50;5.37;;;19.00;96.90;;;;;;4899324;29;20742;-84
2021/09/02 02:32:50;;;;;;;11.73;5.60;;;19.10;96.80;;;;;;4916330;29;20633;-84
2021/09/02 02:35:17;;;;;;;9.97;5.03;;;19.00;97.00;;;;;;4899654;29;20202;-85
2021/09/02 02:37:43;;;;;;;11.23;5.20;;;18.90;97.20;;;;;;4901610;29;20285;-84
2021/09/02 02:40:11;;;;;;;12.40;5.27;;;18.90;97.20;;;;;;4899338;29;20667;-85
2021/09/02 02:42:37;;;;;;;12.27;5.43;;;18.90;97.40;;;;;;4900747;29;20186;-88
2021/09/02 02:45:03;;;;;;;10.17;5.10;;;18.90;97.00;;;;;;4916424;29;20657;-86
2021/09/02 02:47:29;;;;;;;11.60;5.77;;;19.10;96.90;;;;;;4900111;29;20282;-86
2021/09/02 02:49:56;;;;;;;11.33;5.00;;;19.00;96.90;;;;;;4911862;29;20220;-85
2021/09/02 02:52:21;;;;;;;10.50;4.60;;;19.10;97.10;;;;;;4915816;29;20572;-88
2021/09/02 02:54:47;;;;;;;9.03;5.37;;;19.00;97.30;;;;;;4900131;29;20281;-86
2021/09/02 02:57:13;;;;;;;9.20;4.80;;;18.90;97.30;;;;;;4896820;29;20675;-88
2021/09/02 02:59:38;;;;;;;10.63;5.10;;;19.10;97.10;;;;;;4895551;29;20194;-88
2021/09/02 03:02:05;;;;;;;11.27;5.07;;;19.10;96.70;;;;;;4896791;29;20182;-89
2021/09/02 03:04:31;;;;;;;14.80;5.93;;;19.00;96.70;;;;;;4888605;29;20635;-89
2021/09/02 03:06:56;;;;;;;12.77;5.80;;;18.90;97.10;;;;;;4899946;29;20227;-85
2021/09/02 03:09:22;;;;;;;10.57;5.30;;;18.90;97.10;;;;;;4900159;29;20228;-84
2021/09/02 03:12:37;;;;;;;;;;;;;;;;;;;;;
2021/09/02 03:15:41;;;;;;;11.77;5.53;;;19.00;96.70;;;;;;4921670;29;20189;-93
2021/09/02 03:18:56;;;;;;;;;;;;;;;;;;;;;
2021/09/02 03:22:10;;;;;;;;;;;;;;;;;;;;;
2021/09/02 03:35:59;;;;;;;16.23;6.60;;;18.50;98.10;;;;;;4908066;29;20322;-93
2021/09/02 03:42:48;;;;;;;10.63;5.87;;;18.60;97.40;;;;;;4824954;29;20247;-95
2021/09/02 03:46:02;;;;;;;12.13;6.27;;;18.50;97.60;;;;;;4822067;29;20196;-96
2021/09/02 03:48:44;;;;;;;;;;;;;;;;;;;;;
2021/09/02 03:54:35;;;;;;;;;;;;;;;;;;;;;
2021/09/02 03:57:30;;;;;;;14.87;5.90;;;18.20;98.10;;;;;;4831877;29;20744;-95
2021/09/02 04:00:12;;;;;;;14.53;6.57;;;18.10;98.10;;;;;;4899604;29;20181;-95
2021/09/02 04:10:04;;;;;;;16.87;6.67;;;18.10;98.30;;;;;;4865378;29;20190;-95
2021/09/02 04:13:23;;;;;;;12.97;6.03;;;18.10;98.20;;;;;;4853911;29;20218;-93
2021/09/02 04:16:02;;;;;;;13.27;6.03;;;17.90;98.40;;;;;;4825363;29;20206;-93
2021/09/02 04:18:38;;;;;;;12.13;5.90;;;17.90;98.80;;;;;;4825943;29;20294;-94
2021/09/02 04:21:25;;;;;;;11.23;6.50;;;17.90;98.60;;;;;;4889337;29;20571;-93
2021/09/02 04:23:57;;;;;;;12.73;6.40;;;17.90;98.60;;;;;;4902930;29;20191;-94
2021/09/02 04:26:38;;;;;;;11.23;5.70;;;18.00;98.40;;;;;;4904295;29;20195;-93
2021/09/02 04:29:19;;;;;;;;;;;;;;;;;;;;;
2021/09/02 04:32:08;;;;;;;14.87;7.47;;;17.80;98.60;;;;;;4914092;29;20584;-93
2021/09/02 04:38:43;;;;;;;;;;;;;;;;;;;;;
2021/09/02 04:53:10;;;;;;;;;;;;;;;;;;;;;
2021/09/02 05:02:39;;;;;;;15.47;9.07;;;16.90;99.90;;;;;;4747392;30;20196;-94
2021/09/02 05:05:48;;;;;;;17.20;9.00;;;16.80;99.90;;;;;;4782510;29;20200;-96
2021/09/02 05:08:29;;;;;;;16.80;9.47;;;16.70;99.90;;;;;;4772856;29;20238;-93
2021/09/02 05:11:21;;;;;;;18.40;10.27;;;16.70;99.90;;;;;;4809085;29;20223;-95
2021/09/02 05:14:19;;;;;;;24.87;9.77;;;16.70;99.90;;;;;;4795181;29;20260;-95
2021/09/02 05:17:06;;;;;;;19.50;9.87;;;16.70;99.90;;;;;;4797024;29;20195;-96
2021/09/02 05:19:48;;;;;;;20.27;10.37;;;16.70;99.90;;;;;;4812021;29;20299;-95
2021/09/02 05:22:21;;;;;;;23.70;13.27;;;16.80;99.90;;;;;;4807831;29;20310;-96
2021/09/02 05:24:58;;;;;;;24.83;13.83;;;16.80;99.90;;;;;;4863646;29;20184;-96
2021/09/02 05:30:53;;;;;;;20.30;12.30;;;16.80;99.90;;;;;;4913684;29;20227;-94
2021/09/02 05:34:01;;;;;;;;;;;;;;;;;;;;;
2021/09/02 05:36:44;;;;;;;26.27;14.53;;;16.80;99.90;;;;;;4915876;29;20214;-95
2021/09/02 06:23:14;;;;;;;27.80;14.23;;;17.10;99.90;;;;;;4948159;23;20226;-90
2021/09/02 06:25:39;;;;;;;30.57;18.90;;;17.20;99.90;;;;;;4944031;29;20198;-87
2021/09/02 06:28:05;;;;;;;27.70;14.50;;;17.20;99.90;;;;;;4935672;29;20282;-87
2021/09/02 06:51:20;;;;;;;19.20;10.90;;;17.80;99.90;;;;;;5733820;23;20243;-79
2021/09/02 06:53:49;;;;;;;32.57;12.20;;;18.00;99.90;;;;;;4942979;29;20180;-90
2021/09/02 06:56:15;;;;;;;21.63;11.23;;;17.90;99.90;;;;;;4959693;29;20175;-89
2021/09/02 06:58:43;;;;;;;17.60;10.90;;;17.90;99.90;;;;;;4947089;29;20191;-89
2021/09/02 07:01:13;;;;;;;20.80;11.03;;;17.90;99.90;;;;;;4945331;29;20184;-91
2021/09/02 07:03:40;;;;;;;19.30;11.50;;;18.10;99.90;;;;;;4937526;29;20192;-77
2021/09/02 07:06:06;;;;;;;20.57;10.87;;;18.20;99.80;;;;;;4938173;29;20270;-78
2021/09/02 07:08:33;;;;;;;15.83;10.17;;;18.20;99.50;;;;;;4938806;29;20595;-77
2021/09/02 07:10:59;;;;;;;15.53;9.77;;;18.20;99.30;;;;;;4933563;29;20704;-77
2021/09/02 07:13:25;;;;;;;22.97;11.03;;;18.30;99.30;;;;;;4935018;29;20172;-79
2021/09/02 07:15:50;;;;;;;16.90;10.83;;;18.40;98.80;;;;;;4934792;29;20275;-78
2021/09/02 07:18:16;;;;;;;15.57;9.80;;;18.50;98.60;;;;;;4936737;29;20199;-77
2021/09/02 07:20:42;;;;;;;15.13;9.67;;;18.50;98.60;;;;;;4938449;29;20270;-77
2021/09/02 07:23:07;;;;;;;17.17;10.40;;;18.50;98.30;;;;;;4931517;29;20196;-77
2021/09/02 07:25:33;;;;;;;17.07;11.00;;;18.60;98.20;;;;;;4923626;29;20204;-77
2021/09/02 07:27:59;;;;;;;21.87;9.63;;;18.60;98.00;;;;;;4923865;29;20240;-77
2021/09/02 07:30:24;;;;;;;19.30;10.33;;;18.60;98.40;;;;;;4914610;29;20267;-78
2021/09/02 07:32:50;;;;;;;19.27;10.27;;;18.70;98.20;;;;;;4930203;29;20686;-79
2021/09/02 07:35:16;;;;;;;19.87;10.00;;;18.80;98.40;;;;;;4936305;29;20200;-77
2021/09/02 07:37:42;;;;;;;16.93;10.40;;;19.00;98.20;;;;;;4913745;29;20189;-79
2021/09/02 07:40:11;;;;;;;20.43;11.07;;;19.10;98.00;;;;;;4904151;29;20195;-79
2021/09/02 07:42:37;;;;;;;16.83;10.77;;;19.30;97.80;;;;;;4917450;29;20645;-76
2021/09/02 07:45:03;;;;;;;19.00;10.93;;;19.40;97.50;;;;;;4918645;29;20242;-79
2021/09/02 07:47:30;;;;;;;21.77;11.03;;;19.50;97.20;;;;;;4918347;29;20553;-76
2021/09/02 07:49:56;;;;;;;20.73;10.77;;;19.70;97.30;;;;;;4915279;29;20274;-79
2021/09/02 07:52:21;;;;;;;19.37;10.30;;;19.80;97.10;;;;;;4918475;29;20220;-78
2021/09/02 07:54:47;;;;;;;22.30;10.47;;;19.90;96.80;;;;;;4919609;29;20197;-77
2021/09/02 07:57:12;;;;;;;17.07;10.17;;;20.10;96.40;;;;;;4920676;29;20190;-77
2021/09/02 07:59:38;;;;;;;14.90;9.03;;;20.20;96.30;;;;;;4915564;29;20202;-80
2021/09/02 08:02:04;;;;;;;18.13;10.33;;;20.20;96.30;;;;;;4919697;29;20200;-82
2021/09/02 08:04:29;;;;;;;18.80;9.90;;;20.30;95.70;;;;;;4927196;29;20520;-78
2021/09/02 08:06:55;;;;;;;20.40;9.70;;;20.40;95.50;;;;;;4938103;29;20215;-78
2021/09/02 08:09:20;;;;;;;18.93;9.73;;;20.40;95.60;;;;;;4937445;29;20266;-77
2021/09/02 08:11:46;;;;;;;19.67;9.87;;;20.50;95.50;;;;;;4924150;29;20223;-77
2021/09/02 08:14:12;;;;;;;17.10;9.43;;;20.70;95.30;;;;;;4926662;29;20571;-77
2021/09/02 08:16:37;;;;;;;22.17;9.87;;;20.80;95.30;;;;;;4932498;29;20192;-77
2021/09/02 08:19:04;;;;;;;15.53;8.97;;;20.80;95.40;;;;;;4925981;29;20703;-78
2021/09/02 08:21:30;;;;;;;19.87;9.87;;;20.80;95.00;;;;;;4913685;29;20605;-80
2021/09/02 08:23:58;;;;;;;14.03;8.63;;;20.80;95.00;;;;;;4923015;29;20720;-77
2021/09/02 08:26:25;;;;;;;16.13;8.93;;;20.80;95.10;;;;;;4935739;29;20551;-78
2021/09/02 08:28:50;;;;;;;17.43;8.53;;;20.80;95.10;;;;;;4936944;29;20183;-79
2021/09/02 08:31:16;;;;;;;19.57;9.20;;;20.80;94.90;;;;;;4937054;29;20238;-77
2021/09/02 08:33:41;;;;;;;14.53;8.87;;;20.90;94.90;;;;;;4924734;29;20187;-78
2021/09/02 08:36:07;;;;;;;20.30;9.23;;;20.90;94.60;;;;;;4930381;29;20195;-77
2021/09/02 08:38:36;;;;;;;23.67;10.63;;;20.90;94.70;;;;;;4926616;29;20252;-76
2021/09/02 08:41:02;;;;;;;18.37;10.00;;;20.80;94.60;;;;;;4923187;29;20180;-77
2021/09/02 08:43:29;;;;;;;19.43;12.03;;;20.80;94.70;;;;;;4928847;29;20255;-76
2021/09/02 08:45:57;;;;;;;23.83;12.40;;;20.80;94.70;;;;;;4931564;29;20515;-76
2021/09/02 08:48:25;;;;;;;24.13;12.50;;;20.80;94.80;;;;;;4917670;29;20179;-77
2021/09/02 08:51:05;;;;;;;22.23;12.70;;;20.60;94.80;;;;;;4936571;29;20225;-88
2021/09/02 08:53:31;;;;;;;23.80;12.40;;;20.70;94.70;;;;;;4922775;29;20219;-77
2021/09/02 08:55:57;;;;;;;24.40;14.13;;;20.80;94.90;;;;;;4930999;29;20185;-76
2021/09/02 08:58:25;;;;;;;27.10;13.77;;;20.80;94.80;;;;;;4926676;29;20671;-77
2021/09/02 09:00:51;;;;;;;23.23;13.30;;;20.80;94.60;;;;;;4920930;29;20180;-77
2021/09/02 09:03:18;;;;;;;25.03;13.93;;;20.70;95.10;;;;;;4934623;29;20598;-78
2021/09/02 09:05:51;;;;;;;25.80;14.37;;;20.80;94.80;;;;;;4923132;29;20657;-76
2021/09/02 09:08:17;;;;;;;28.57;14.77;;;20.90;94.70;;;;;;4921205;29;20195;-76
2021/09/02 09:10:42;;;;;;;28.03;14.17;;;20.80;94.90;;;;;;4921119;29;20216;-76
2021/09/02 09:13:09;;;;;;;23.13;14.43;;;20.80;95.00;;;;;;4931524;29;20218;-76
2021/09/02 09:15:36;;;;;;;28.93;15.33;;;20.80;94.90;;;;;;4923107;29;20241;-79
2021/09/02 09:18:24;;;;;;;28.93;14.33;;;20.80;94.90;;;;;;4934674;29;20234;-77
2021/09/02 09:21:13;;;;;;;28.03;14.17;;;20.80;95.60;;;;;;4916032;29;20203;-76
2021/09/02 09:24:02;;;;;;;21.50;13.10;;;20.90;95.00;;;;;;4934155;29;20218;-76
2021/09/02 09:26:29;;;;;;;26.20;13.87;;;21.00;95.00;;;;;;4931431;29;20206;-77
2021/09/02 09:29:00;;;;;;;25.83;14.97;;;21.00;94.60;;;;;;4934513;29;20187;-77
2021/09/02 09:31:27;;;;;;;24.60;13.83;;;21.10;94.70;;;;;;4934838;29;20309;-77
2021/09/02 09:33:55;;;;;;;24.47;13.00;;;20.90;95.10;;;;;;4935846;29;20211;-76
2021/09/02 09:36:24;;;;;;;27.97;14.50;;;21.00;95.40;;;;;;4918547;29;20626;-76
2021/09/02 09:39:13;;;;;;;26.77;14.50;;;21.10;94.80;;;;;;4913996;29;20247;-77
2021/09/02 09:41:44;;;;;;;22.37;14.47;;;21.10;94.60;;;;;;4912161;29;20314;-77
2021/09/02 09:44:20;;;;;;;25.50;13.93;;;21.10;94.70;;;;;;4921727;29;20705;-78
2021/09/02 09:47:09;;;;;;;25.87;14.43;;;21.10;94.90;;;;;;4925943;29;20198;-76
2021/09/02 09:49:45;;;;;;;24.50;14.80;;;21.20;95.00;;;;;;4927746;29;20201;-77
2021/09/02 09:52:25;;;;;;;22.83;12.20;;;21.20;94.70;;;;;;4934637;29;20221;-78
2021/09/02 09:54:53;;;;;;;21.57;13.90;;;21.20;95.10;;;;;;4922975;29;20781;-76
2021/09/02 09:57:19;;;;;;;24.30;13.17;;;21.30;94.70;;;;;;4924126;29;20668;-76
2021/09/02 09:59:45;;;;;;;27.70;13.77;;;21.30;94.70;;;;;;4919027;29;20206;-77
2021/09/02 10:02:11;;;;;;;19.33;12.27;;;21.30;95.00;;;;;;4923510;29;20246;-76
2021/09/02 10:04:38;;;;;;;24.67;13.47;;;21.40;94.60;;;;;;4917994;29;20717;-76
2021/09/02 10:07:05;;;;;;;25.23;12.77;;;21.50;94.30;;;;;;4920159;29;20194;-77
2021/09/02 10:09:33;;;;;;;20.93;11.77;;;21.40;94.20;;;;;;4911962;29;20177;-77
2021/09/02 10:12:02;;;;;;;21.80;11.20;;;21.50;94.40;;;;;;4918274;29;20298;-77
2021/09/02 10:14:29;;;;;;;18.00;10.77;;;21.50;94.70;;;;;;4932566;29;20286;-77
2021/09/02 10:16:56;;;;;;;21.87;12.13;;;21.60;94.60;;;;;;4934796;29;20184;-77
2021/09/02 10:19:24;;;;;;;19.17;11.23;;;21.60;94.70;;;;;;4911647;29;20687;-77
2021/09/02 10:21:52;;;;;;;18.10;11.80;;;21.70;94.60;;;;;;4916195;29;20212;-79
2021/09/02 10:24:35;;;;;;;22.03;10.93;;;21.80;94.10;;;;;;4918273;29;20169;-77
2021/09/02 10:27:02;;;;;;;18.93;10.83;;;21.90;93.90;;;;;;4933137;29;20194;-77
2021/09/02 10:29:35;;;;;;;19.93;10.70;;;22.00;93.90;;;;;;4923272;29;20699;-78
2021/09/02 10:32:23;;;;;;;20.23;10.70;;;22.10;93.70;;;;;;4920075;29;20576;-79
2021/09/02 10:34:52;;;;;;;19.23;10.77;;;22.30;93.90;;;;;;4927630;29;20203;-89
2021/09/02 10:37:43;;;;;;;18.60;9.60;;;22.40;93.60;;;;;;4919193;29;20195;-78
2021/09/02 10:40:23;;;;;;;17.53;8.70;;;22.50;93.60;;;;;;4924721;29;20238;-77
2021/09/02 10:42:57;;;;;;;15.40;8.27;;;22.60;93.60;;;;;;4909065;29;20199;-76
2021/09/02 10:45:30;;;;;;;15.90;9.20;;;22.60;93.40;;;;;;4916765;29;20180;-77
2021/09/02 10:48:02;;;;;;;16.03;8.70;;;22.70;93.50;;;;;;4923411;29;20207;-77
2021/09/02 10:50:30;;;;;;;13.70;7.73;;;22.70;93.10;;;;;;4925435;29;20232;-77
2021/09/02 10:53:09;;;;;;;14.93;7.17;;;22.90;92.40;;;;;;4929251;29;20664;-77
2021/09/02 10:55:37;;;;;;;13.27;7.40;;;23.10;92.30;;;;;;4922503;29;20435;-77
2021/09/02 10:58:04;;;;;;;16.30;8.30;;;23.30;91.50;;;;;;4915475;29;20232;-78
2021/09/02 11:00:41;;;;;;;15.23;8.33;;;23.50;91.00;;;;;;4921436;29;20187;-78
2021/09/02 11:03:25;;;;;;;13.67;7.00;;;23.90;90.90;;;;;;4921148;29;20183;-77
2021/09/02 11:05:55;;;;;;;13.13;8.10;;;24.60;90.50;;;;;;4917721;29;20193;-75
2021/09/02 11:08:37;;;;;;;15.80;7.80;;;25.70;88.90;;;;;;4932013;29;20270;-77
2021/09/02 11:11:18;;;;;;;12.17;7.33;;;26.50;87.20;;;;;;4929138;29;20218;-77
2021/09/02 11:13:46;;;;;;;11.43;6.90;;;27.50;84.70;;;;;;4914982;29;20191;-76
2021/09/02 11:16:17;;;;;;;9.73;6.70;;;28.40;84.00;;;;;;4913440;29;20641;-78
2021/09/02 11:18:55;;;;;;;12.70;8.07;;;28.90;82.10;;;;;;4930998;29;20645;-79
2021/09/02 11:21:25;;;;;;;14.80;8.20;;;29.00;80.70;;;;;;4920371;29;20300;-80
2021/09/02 11:24:00;;;;;;;10.93;7.17;;;29.10;80.70;;;;;;4933739;29;20180;-79
2021/09/02 11:26:43;;;;;;;9.73;6.50;;;29.70;79.10;;;;;;4933017;29;20190;-79
2021/09/02 11:29:23;;;;;;;11.93;7.10;;;29.80;78.40;;;;;;4935175;29;20180;-80
2021/09/02 11:31:59;;;;;;;9.93;6.10;;;30.20;77.80;;;;;;4934559;29;20672;-79
2021/09/02 11:34:25;;;;;;;17.20;6.50;;;30.50;76.90;;;;;;4938317;29;20206;-79
2021/09/02 11:36:51;;;;;;;9.02;6.25;;;30.80;75.40;;;;;;4928254;29;20232;-79
2021/09/02 11:39:16;;;;;;;9.18;6.38;;;30.90;75.20;;;;;;4933693;29;20189;-76
2021/09/02 11:41:43;;;;;;;12.43;6.60;;;31.00;74.20;;;;;;4930972;29;20202;-76
2021/09/02 11:44:19;;;;;;;11.00;6.15;;;30.90;74.60;;;;;;4926864;29;20223;-80
2021/09/02 11:46:45;;;;;;;10.48;6.38;;;31.20;73.80;;;;;;4938288;29;20715;-78
2021/09/02 11:49:17;;;;;;;10.43;5.85;;;31.80;73.20;;;;;;4938420;29;20195;-77
2021/09/02 11:51:54;;;;;;;8.98;6.65;;;32.10;72.90;;;;;;4923858;29;20692;-79
2021/09/02 11:54:19;;;;;;;13.23;7.03;;;32.10;71.70;;;;;;4938012;29;20199;-77
2021/09/02 11:56:46;;;;;;;10.10;6.97;;;32.40;71.20;;;;;;4938094;29;20673;-83
2021/09/02 11:59:12;;;;;;;11.65;6.10;;;32.60;70.30;;;;;;4936988;29;20601;-77
2021/09/02 12:01:45;;;;;;;12.77;6.05;;;33.10;69.90;;;;;;4938092;29;20670;-77
2021/09/02 12:04:23;;;;;;;12.52;7.50;;;33.70;69.20;;;;;;4938040;29;20176;-77
2021/09/02 12:06:54;;;;;;;10.65;6.22;;;34.20;68.10;;;;;;4931506;29;20202;-77
2021/09/02 12:09:22;;;;;;;11.20;5.68;;;34.00;67.80;;;;;;4938161;29;20266;-77
2021/09/02 12:11:49;;;;;;;8.75;6.10;;;33.90;68.20;;;;;;4935333;29;20220;-77
2021/09/02 12:14:16;;;;;;;8.63;5.88;;;34.40;67.40;;;;;;4916672;29;20248;-77
2021/09/02 12:16:42;;;;;;;8.05;5.88;;;35.00;65.90;;;;;;4934165;29;20712;-78
2021/09/02 12:19:08;;;;;;;9.07;5.60;;;35.20;65.90;;;;;;4934847;29;20207;-78
2021/09/02 12:21:34;;;;;;;11.15;6.53;;;35.60;65.50;;;;;;4931263;29;20212;-78
2021/09/02 12:24:11;;;;;;;11.68;6.55;;;35.70;63.80;;;;;;4938285;29;20176;-88
2021/09/02 12:26:51;;;;;;;9.77;5.75;;;35.20;64.40;;;;;;4919860;29;20187;-78
2021/09/02 12:29:19;;;;;;;10.63;6.10;;;35.30;64.20;;;;;;4937253;29;20184;-78
2021/09/02 12:31:47;;;;;;;11.52;6.47;;;35.90;64.00;;;;;;4933602;29;20347;-79
2021/09/02 12:34:22;;;;;;;11.77;6.03;;;36.60;62.50;;;;;;4936810;29;20667;-78
2021/09/02 12:37:23;;;;;;;10.63;6.22;;;36.40;62.50;;;;;;4932206;29;20287;-82
2021/09/02 12:39:51;;;;;;;10.23;7.03;;;37.20;61.80;;;;;;4906080;29;20195;-82
2021/09/02 12:42:28;;;;;;;6.50;5.13;;;37.30;60.90;;;;;;4931894;29;20216;-84
2021/09/02 12:45:09;;;;;;;10.57;6.43;;;37.50;60.00;;;;;;4918993;29;20188;-83
2021/09/02 12:47:36;;;;;;;11.30;6.50;;;37.50;59.90;;;;;;4934278;29;20188;-82
2021/09/02 12:50:16;;;;;;;10.00;6.00;;;37.40;60.10;;;;;;4924293;29;20183;-83
2021/09/02 12:52:42;;;;;;;10.27;6.40;;;37.10;60.10;;;;;;4932029;29;20279;-78
2021/09/02 12:55:17;;;;;;;7.90;5.68;;;36.70;60.10;;;;;;4918014;29;20590;-82
2021/09/02 12:57:46;;;;;;;8.85;5.57;;;36.50;60.20;;;;;;4923286;29;20270;-77
2021/09/02 13:00:16;;;;;;;7.45;5.25;;;37.30;59.40;;;;;;4922809;29;20204;-82
2021/09/02 13:02:43;;;;;;;10.45;5.75;;;37.80;58.40;;;;;;4929143;29;20216;-80
2021/09/02 13:05:11;;;;;;;7.72;5.00;;;38.40;57.80;;;;;;4916761;29;20188;-79
2021/09/02 13:07:47;;;;;;;8.90;5.32;;;38.90;57.30;;;;;;4926652;29;20184;-77
2021/09/02 13:10:15;;;;;;;8.93;5.30;;;39.00;57.10;;;;;;4925852;29;20223;-80
2021/09/02 13:12:41;;;;;;;8.25;5.30;;;39.30;56.80;;;;;;4924285;29;20203;-77
2021/09/02 13:15:07;;;;;;;7.20;5.40;;;39.90;55.90;;;;;;4926796;29;20183;-77
2021/09/02 13:17:33;;;;;;;8.40;4.82;;;40.10;54.80;;;;;;4925262;29;20660;-77
2021/09/02 13:19:58;;;;;;;7.20;4.93;;;40.10;55.10;;;;;;4915825;29;20181;-77
2021/09/02 13:22:24;;;;;;;9.00;5.10;;;40.30;55.30;;;;;;4915402;29;20619;-79
2021/09/02 13:24:50;;;;;;;5.60;5.00;;;40.80;54.10;;;;;;4918388;29;20189;-78
2021/09/02 13:27:15;;;;;;;10.20;5.80;;;40.50;54.50;;;;;;4930644;29;20184;-78
2021/09/02 13:29:41;;;;;;;8.18;5.30;;;40.60;53.30;;;;;;4920718;29;20188;-80
2021/09/02 13:32:07;;;;;;;7.38;5.05;;;40.90;53.30;;;;;;4917336;29;20315;-78
2021/09/02 13:34:33;;;;;;;7.80;5.50;;;40.70;53.40;;;;;;4925199;29;20199;-77
2021/09/02 13:37:01;;;;;;;7.82;5.30;;;41.10;53.00;;;;;;4936408;29;20188;-92
2021/09/02 13:39:27;;;;;;;6.80;5.10;;;41.20;52.80;;;;;;4921118;29;20176;-79
2021/09/02 13:41:52;;;;;;;8.57;6.47;;;41.00;53.00;;;;;;4914709;29;20224;-77
2021/09/02 13:44:18;;;;;;;7.05;6.32;;;41.10;51.90;;;;;;4920323;29;20539;-77
2021/09/02 13:46:44;;;;;;;9.90;5.65;;;41.40;51.80;;;;;;4926189;29;20188;-77
2021/09/02 13:49:10;;;;;;;9.85;5.70;;;40.70;52.50;;;;;;4918604;29;20192;-77
2021/09/02 13:51:37;;;;;;;7.87;5.97;;;40.80;52.50;;;;;;4880020;29;1151263;-78
2021/09/02 13:54:03;;;;;;;8.02;6.70;;;40.70;52.30;;;;;;4924192;29;20192;-76
2021/09/02 13:56:28;;;;;;;10.65;6.30;;;39.90;52.30;;;;;;4920943;29;20278;-78
2021/09/02 13:58:54;;;;;;;12.45;6.60;;;39.10;53.40;;;;;;4919288;29;20240;-76
2021/09/02 14:01:20;;;;;;;9.05;6.85;;;38.70;53.80;;;;;;4916642;29;20228;-78
2021/09/02 14:03:46;;;;;;;8.73;6.22;;;38.80;54.70;;;;;;4923552;29;20198;-78
2021/09/02 14:06:15;;;;;;;9.43;6.55;;;39.30;53.50;;;;;;4919091;29;20532;-88
2021/09/02 15:51:57;;;;;;;10.75;5.60;;;39.80;51.00;;;;;;5845519;23;20243;-82
2021/09/02 15:54:23;;;;;;;9.02;5.68;;;39.80;51.40;;;;;;4921137;29;20188;-80
2021/09/02 15:56:49;;;;;;;9.40;5.22;;;39.50;52.10;;;;;;4936878;29;20195;-81
2021/09/02 15:59:27;;;;;;;8.27;5.25;;;39.30;51.40;;;;;;4937819;29;20190;-92
2021/09/02 16:01:52;;;;;;;7.57;5.43;;;39.30;51.20;;;;;;4909717;29;20224;-84
2021/09/02 16:04:18;;;;;;;7.55;5.30;;;39.20;51.00;;;;;;4950004;29;20190;-83
2021/09/02 16:06:44;;;;;;;9.32;5.65;;;39.10;51.20;;;;;;4922610;29;20546;-80
2021/09/02 16:09:09;;;;;;;8.90;5.25;;;39.00;51.00;;;;;;4926654;29;20187;-81
2021/09/02 16:11:36;;;;;;;10.25;5.78;;;39.00;51.60;;;;;;4937856;29;20195;-84
2021/09/02 16:14:03;;;;;;;6.78;5.60;;;38.70;51.60;;;;;;4937645;29;20180;-84
2021/09/02 16:16:28;;;;;;;9.18;5.75;;;38.60;51.40;;;;;;4937714;29;20196;-83
2021/09/02 16:18:54;;;;;;;12.35;5.63;;;38.40;52.50;;;;;;4937279;29;20522;-85
2021/09/02 16:21:19;;;;;;;11.73;7.32;;;38.30;52.00;;;;;;4933378;29;20745;-85
2021/09/02 16:23:46;;;;;;;7.18;5.57;;;38.00;52.10;;;;;;4941010;29;20179;-84
2021/09/02 16:26:11;;;;;;;7.10;5.63;;;37.80;52.90;;;;;;4946939;29;20195;-85
2021/09/02 16:28:37;;;;;;;8.52;6.05;;;37.80;52.80;;;;;;4937509;29;20207;-82
2021/09/02 16:31:03;;;;;;;7.05;5.88;;;37.80;52.50;;;;;;4927693;29;20669;-81
2021/09/02 16:33:28;;;;;;;7.65;5.55;;;37.50;53.70;;;;;;4915483;29;20267;-84
2021/09/02 16:35:54;;;;;;;11.05;6.40;;;37.20;53.50;;;;;;4944378;29;20596;-85
2021/09/02 16:38:20;;;;;;;8.20;6.60;;;37.10;53.70;;;;;;4942239;29;20598;-84
2021/09/02 16:40:46;;;;;;;9.57;5.70;;;36.80;53.60;;;;;;4935538;29;20215;-83
2021/09/02 16:43:12;;;;;;;8.90;6.75;;;36.80;53.60;;;;;;4934503;29;20736;-84